Svend Maersk — OYJS2 — position and weather

sailwx.info

Track history (hours):
 
Tides and Currents Weather Stations Pressure Air Temp Water Temp Dewpoint Dewpoint Depression Visibility Wind Speed Wind Dir Waves Ship Positions

Svend Maersk

Last reported at 2015-Aug-23 22:27 UTC. Time now 2015-Sep-05 12:19 UTC.
Position N 33°42' W 127°51'.
Warning: this ship's position is 12 days out of date.

Type: Ship (hazmat cat A). MMSI: 219791000.

Date/timePositionNaut miles runAvg speedWind from/ knotsBaromVisibWave heightAir tempDewpointWater temp
2015-Aug-23 22:27N 33°42' W 127°51'30312.4
2015-Aug-22 22:04N 30°48' W 122°58'612.4
2015-Aug-22 21:33N 30°44' W 122°52'1512.5
2015-Aug-22 20:21N 30°35' W 122°38'6313.0
2015-Aug-22 15:30N 29°56' W 121°40'3812.6
2015-Aug-22 12:30N 29°33' W 121°06'1512.5
2015-Aug-22 11:18N 29°24' W 120°53'1012.5
2015-Aug-22 10:29N 29°17' W 120°44'1212.3
2015-Aug-22 09:33N 29°10' W 120°33'1212.3
2015-Aug-22 08:33N 29°03' W 120°22'1212.0
2015-Aug-22 07:33N 28°55' W 120°12'1212.1
2015-Aug-22 06:33N 28°47' W 120°01'  
Track history (hours):
 
Tides and Currents Weather Stations Pressure Air Temp Water Temp Dewpoint Dewpoint Depression Visibility Wind Speed Wind Dir Waves Ship Positions

Svend Maersk

Last reported at 2015-Aug-23 22:27 UTC. Time now 2015-Sep-05 12:20 UTC.
Position N 33°42' W 127°51'.
Warning: this ship's position is 12 days out of date.

Type: Ship (hazmat cat A). MMSI: 219791000.

Date/timePositionNaut miles runAvg speedWind from/ knotsBaromVisibWave heightAir tempDewpointWater temp
2015-Aug-23 22:27N 33°42' W 127°51'30312.4
2015-Aug-22 22:04N 30°48' W 122°58'612.4
2015-Aug-22 21:33N 30°44' W 122°52'1512.5
2015-Aug-22 20:21N 30°35' W 122°38'6313.0
2015-Aug-22 15:30N 29°56' W 121°40'3812.6
2015-Aug-22 12:30N 29°33' W 121°06'1512.5
2015-Aug-22 11:18N 29°24' W 120°53'1012.5
2015-Aug-22 10:29N 29°17' W 120°44'1212.3
2015-Aug-22 09:33N 29°10' W 120°33'1212.3
2015-Aug-22 08:33N 29°03' W 120°22'1212.0
2015-Aug-22 07:33N 28°55' W 120°12'1212.1
2015-Aug-22 06:33N 28°47' W 120°01'  

Dump ship's entire track history